createdAt,value
2018-11-13T00:00:26.881Z,101023.00
2018-11-13T00:02:56.554Z,101012.00
2018-11-13T00:05:26.667Z,101015.00
2018-11-13T00:07:56.085Z,101013.00
2018-11-13T00:10:25.404Z,101019.00
2018-11-13T00:12:54.840Z,101022.00
2018-11-13T00:15:24.149Z,101028.00
2018-11-13T00:17:53.482Z,101024.00
2018-11-13T00:20:22.833Z,101014.00
2018-11-13T00:22:52.237Z,101008.00
2018-11-13T00:25:21.756Z,101006.00
2018-11-13T00:27:51.077Z,100999.00
2018-11-13T00:30:23.878Z,101009.00
2018-11-13T00:32:53.222Z,101013.00
2018-11-13T00:35:23.065Z,101013.00
2018-11-13T00:37:52.752Z,101023.00
2018-11-13T00:40:22.061Z,101020.00
2018-11-13T00:42:52.507Z,101026.00
2018-11-13T00:45:21.881Z,101046.00
2018-11-13T00:47:51.264Z,101056.00
2018-11-13T00:50:21.210Z,101054.00
2018-11-13T00:52:50.907Z,101044.00
2018-11-13T00:55:20.584Z,101047.00
2018-11-13T00:57:49.901Z,101032.00
2018-11-13T01:00:20.653Z,101009.00
2018-11-13T01:02:50.937Z,101018.00
2018-11-13T01:05:21.274Z,101020.00
2018-11-13T01:07:51.731Z,101024.00
2018-11-13T01:10:21.454Z,101037.00
2018-11-13T01:12:50.800Z,101042.00
2018-11-13T01:15:22.124Z,101051.00
2018-11-13T01:17:51.478Z,101032.00
2018-11-13T01:20:20.879Z,101025.00
2018-11-13T01:22:50.200Z,101025.00
2018-11-13T01:25:20.593Z,101023.00
2018-11-13T01:27:50.004Z,101027.00
2018-11-13T01:30:19.272Z,101024.00
2018-11-13T01:32:48.558Z,101016.00
2018-11-13T01:35:18.765Z,101017.00
2018-11-13T01:37:48.201Z,101001.00
2018-11-13T01:40:19.837Z,101016.00
2018-11-13T01:42:49.142Z,101020.00
2018-11-13T01:45:19.576Z,101020.00
2018-11-13T01:47:49.034Z,101011.00
2018-11-13T01:50:18.785Z,101028.00
2018-11-13T01:52:48.191Z,101029.00
2018-11-13T01:55:17.584Z,101029.00
2018-11-13T01:57:46.875Z,101026.00
2018-11-13T02:00:22.139Z,101025.00
2018-11-13T02:02:53.564Z,101013.00
2018-11-13T02:05:25.030Z,101011.00
2018-11-13T02:07:55.042Z,101010.00
2018-11-13T02:10:24.481Z,101020.00
2018-11-13T02:12:53.847Z,101028.00
2018-11-13T02:15:23.202Z,101027.00
2018-11-13T02:17:52.563Z,101028.00
2018-11-13T02:20:23.009Z,101043.00
2018-11-13T02:22:52.411Z,101052.00
2018-11-13T02:25:21.876Z,101043.00
2018-11-13T02:27:51.282Z,101019.00
2018-11-13T02:30:23.606Z,101008.00
2018-11-13T02:32:52.908Z,101022.00
2018-11-13T02:35:22.213Z,101018.00
2018-11-13T02:37:51.537Z,101006.00
2018-11-13T02:40:20.870Z,101010.00
2018-11-13T02:42:50.252Z,101003.00
2018-11-13T02:45:20.315Z,101001.00
2018-11-13T02:47:49.622Z,100989.00
2018-11-13T02:50:20.437Z,100989.00
2018-11-13T02:52:49.817Z,100976.00
2018-11-13T02:55:19.181Z,100970.00
2018-11-13T02:57:48.540Z,100979.00
2018-11-13T03:00:19.852Z,100991.00
2018-11-13T03:02:49.250Z,100994.00
2018-11-13T03:05:19.728Z,101000.00
2018-11-13T03:07:49.088Z,101008.00
2018-11-13T03:10:19.270Z,101023.00
2018-11-13T03:12:48.595Z,101031.00
2018-11-13T03:15:19.227Z,101018.00
2018-11-13T03:17:48.532Z,101017.00
2018-11-13T03:20:19.099Z,101024.00
2018-11-13T03:22:48.925Z,101019.00
2018-11-13T03:25:19.449Z,101037.00
2018-11-13T03:27:48.765Z,101034.00
2018-11-13T03:30:25.942Z,101030.00
2018-11-13T03:32:55.390Z,101026.00
2018-11-13T03:35:24.789Z,101019.00
2018-11-13T03:37:54.109Z,101017.00
2018-11-13T03:40:23.453Z,101015.00
2018-11-13T03:42:52.835Z,101021.00
2018-11-13T03:45:22.103Z,101013.00
2018-11-13T03:47:51.406Z,101022.00
2018-11-13T03:50:21.814Z,101014.00
2018-11-13T03:52:51.184Z,101017.00
2018-11-13T03:55:21.329Z,101026.00
2018-11-13T03:57:51.002Z,101026.00
2018-11-13T04:00:22.653Z,101034.00
2018-11-13T04:02:52.040Z,101032.00
2018-11-13T04:05:21.985Z,101042.00
2018-11-13T04:07:52.624Z,101047.00
2018-11-13T04:10:22.404Z,101056.00
2018-11-13T04:12:51.765Z,101049.00
2018-11-13T04:15:23.292Z,101057.00
2018-11-13T04:17:52.591Z,101056.00
2018-11-13T04:20:22.768Z,101065.00
2018-11-13T04:22:52.175Z,101065.00
2018-11-13T04:25:21.594Z,101074.00
2018-11-13T04:27:50.971Z,101074.00
2018-11-13T04:30:20.345Z,101071.00
2018-11-13T04:32:49.712Z,101076.00
2018-11-13T04:35:19.425Z,101072.00
2018-11-13T04:37:48.793Z,101063.00
2018-11-13T04:40:20.389Z,101064.00
2018-11-13T04:42:51.047Z,101063.00
2018-11-13T04:45:24.563Z,101055.00
2018-11-13T04:47:53.905Z,101045.00
2018-11-13T04:50:23.716Z,101042.00
2018-11-13T04:52:53.040Z,101047.00
2018-11-13T04:55:22.346Z,101049.00
2018-11-13T04:57:52.716Z,101059.00
2018-11-13T05:00:23.317Z,101054.00
2018-11-13T05:02:52.779Z,101049.00
2018-11-13T05:05:22.907Z,101047.00
2018-11-13T05:07:54.517Z,101051.00
2018-11-13T05:10:25.238Z,101043.00
2018-11-13T05:12:54.712Z,101030.00
2018-11-13T05:15:26.123Z,101046.00
2018-11-13T05:17:55.464Z,101047.00
2018-11-13T05:20:24.921Z,101044.00
2018-11-13T05:22:54.319Z,101032.00
2018-11-13T05:25:23.565Z,101032.00
2018-11-13T05:27:52.841Z,101038.00
2018-11-13T05:30:22.865Z,101044.00
2018-11-13T05:32:53.321Z,101064.00
2018-11-13T05:35:23.016Z,101060.00
2018-11-13T05:37:52.370Z,101072.00
2018-11-13T05:40:23.067Z,101082.00
2018-11-13T05:42:52.512Z,101072.00
2018-11-13T05:45:23.099Z,101090.00
2018-11-13T05:47:52.432Z,101081.00
2018-11-13T05:50:21.794Z,101095.00
2018-11-13T05:52:52.435Z,101083.00
2018-11-13T05:55:21.799Z,101068.00
2018-11-13T05:57:51.351Z,101081.00
2018-11-13T06:00:30.157Z,101095.00
2018-11-13T06:02:59.827Z,101093.00
2018-11-13T06:05:29.300Z,101084.00
2018-11-13T06:07:58.710Z,101086.00
2018-11-13T06:10:28.083Z,101104.00
2018-11-13T06:12:57.436Z,101108.00
2018-11-13T06:15:26.857Z,101100.00
2018-11-13T06:17:56.208Z,101100.00
2018-11-13T06:20:25.580Z,101107.00
2018-11-13T06:22:54.981Z,101112.00
2018-11-13T06:25:24.343Z,101119.00
2018-11-13T06:27:53.931Z,101116.00
2018-11-13T06:30:24.585Z,101121.00
2018-11-13T06:32:54.008Z,101108.00
2018-11-13T06:35:23.358Z,101117.00
2018-11-13T06:37:52.670Z,101126.00
2018-11-13T06:40:22.445Z,101123.00
2018-11-13T06:42:51.791Z,101127.00
2018-11-13T06:45:22.312Z,101124.00
2018-11-13T06:47:52.343Z,101132.00
2018-11-13T06:50:21.733Z,101125.00
2018-11-13T06:52:51.802Z,101121.00
2018-11-13T06:55:28.061Z,101137.00
2018-11-13T06:57:57.501Z,101137.00
2018-11-13T07:00:26.919Z,101134.00
2018-11-13T07:02:56.306Z,101140.00
2018-11-13T07:05:25.882Z,101138.00
2018-11-13T07:07:55.269Z,101147.00
2018-11-13T07:10:25.970Z,101152.00
2018-11-13T07:12:56.273Z,101144.00
2018-11-13T07:15:27.001Z,101147.00
2018-11-13T07:17:57.962Z,101144.00
2018-11-13T07:20:28.719Z,101151.00
2018-11-13T07:22:58.589Z,101148.00
2018-11-13T07:25:27.993Z,101156.00
2018-11-13T07:27:57.563Z,101157.00
2018-11-13T07:30:27.482Z,101160.00
2018-11-13T07:32:56.990Z,101163.00
2018-11-13T07:35:26.389Z,101163.00
2018-11-13T07:37:58.033Z,101167.00
2018-11-13T07:40:27.585Z,101179.00
2018-11-13T07:42:57.111Z,101178.00
2018-11-13T07:45:26.718Z,101170.00
2018-11-13T07:47:56.200Z,101165.00
2018-11-13T07:50:25.532Z,101176.00
2018-11-13T07:52:55.240Z,101163.00
2018-11-13T07:55:24.565Z,101164.00
2018-11-13T07:57:53.896Z,101165.00
2018-11-13T08:00:24.482Z,101174.00
2018-11-13T08:02:55.244Z,101180.00
2018-11-13T08:05:24.605Z,101180.00
2018-11-13T08:07:54.406Z,101177.00
2018-11-13T08:10:24.020Z,101181.00
2018-11-13T08:12:53.485Z,101179.00
2018-11-13T08:15:22.729Z,101173.00
2018-11-13T08:17:52.096Z,101168.00
2018-11-13T08:20:21.417Z,101180.00
2018-11-13T08:22:50.974Z,101174.00
2018-11-13T08:25:20.297Z,101176.00
2018-11-13T08:27:49.726Z,101179.00
2018-11-13T08:30:19.653Z,101181.00
2018-11-13T08:32:49.076Z,101186.00
2018-11-13T08:35:18.642Z,101183.00
2018-11-13T08:37:48.487Z,101182.00
2018-11-13T08:40:18.941Z,101196.00
2018-11-13T08:42:48.554Z,101198.00
2018-11-13T08:45:18.189Z,101209.00
2018-11-13T08:47:49.117Z,101202.00
2018-11-13T08:50:18.659Z,101208.00
2018-11-13T08:52:48.485Z,101199.00
2018-11-13T08:55:18.270Z,101204.00
2018-11-13T08:57:47.806Z,101214.00
2018-11-13T09:00:18.579Z,101222.00
2018-11-13T09:02:49.537Z,101227.00
2018-11-13T09:05:19.243Z,101230.00
2018-11-13T09:07:48.805Z,101241.00
2018-11-13T09:10:18.975Z,101245.00
2018-11-13T09:12:48.672Z,101252.00
2018-11-13T09:15:19.577Z,101256.00
2018-11-13T09:17:49.549Z,101254.00
2018-11-13T09:20:20.025Z,101268.00
2018-11-13T09:22:49.455Z,101254.00
2018-11-13T09:25:20.094Z,101279.00
2018-11-13T09:27:49.943Z,101239.00
2018-11-13T09:30:21.572Z,101267.00
2018-11-13T09:32:51.488Z,101263.00
2018-11-13T09:35:21.019Z,101283.00
2018-11-13T09:37:50.452Z,101278.00
2018-11-13T09:40:21.124Z,101271.00
2018-11-13T09:42:52.043Z,101288.00
2018-11-13T09:45:21.524Z,101278.00
2018-11-13T09:47:51.265Z,101285.00
2018-11-13T09:50:21.775Z,101277.00
2018-11-13T09:52:52.578Z,101283.00
2018-11-13T09:55:23.395Z,101273.00
2018-11-13T09:57:53.037Z,101287.00
2018-11-13T10:00:26.635Z,101282.00
2018-11-13T10:02:59.189Z,101277.00
2018-11-13T10:05:28.024Z,101288.00
2018-11-13T10:07:58.103Z,101265.00
2018-11-13T10:10:27.935Z,101270.00
2018-11-13T10:12:57.729Z,101262.00
2018-11-13T10:15:29.575Z,101266.00
2018-11-13T10:17:59.264Z,101264.00
2018-11-13T10:20:28.928Z,101265.00
2018-11-13T10:22:58.983Z,101250.00
2018-11-13T10:25:28.804Z,101256.00
2018-11-13T10:27:58.236Z,101267.00
2018-11-13T10:30:27.846Z,101251.00
2018-11-13T10:32:57.469Z,101262.00
2018-11-13T10:35:27.359Z,101260.00
2018-11-13T10:37:57.173Z,101259.00
2018-11-13T10:40:27.059Z,101256.00
2018-11-13T10:42:56.759Z,101274.00
2018-11-13T10:45:28.343Z,101279.00
2018-11-13T10:47:57.984Z,101266.00
2018-11-13T10:50:27.713Z,101275.00
2018-11-13T10:52:57.772Z,101271.00
2018-11-13T10:55:27.394Z,101267.00
2018-11-13T10:57:56.836Z,101280.00
2018-11-13T11:00:32.747Z,101278.00
2018-11-13T11:03:07.596Z,101280.00
2018-11-13T11:05:37.128Z,101270.00
2018-11-13T11:08:06.829Z,101268.00
2018-11-13T11:10:36.461Z,101270.00
2018-11-13T11:13:06.525Z,101260.00
2018-11-13T11:15:36.238Z,101268.00
2018-11-13T11:18:06.033Z,101261.00
2018-11-13T11:20:35.380Z,101264.00
2018-11-13T11:23:04.902Z,101272.00
2018-11-13T11:25:34.337Z,101274.00
2018-11-13T11:28:04.311Z,101284.00
2018-11-13T11:30:33.901Z,101280.00
2018-11-13T11:33:03.312Z,101288.00
2018-11-13T11:35:32.890Z,101281.00
2018-11-13T11:38:02.492Z,101284.00
2018-11-13T11:40:32.485Z,101290.00
2018-11-13T11:43:02.402Z,101287.00
2018-11-13T11:45:32.116Z,101278.00
2018-11-13T11:48:01.614Z,101277.00
2018-11-13T11:50:31.289Z,101298.00
2018-11-13T11:53:00.735Z,101292.00
2018-11-13T11:55:30.283Z,101290.00
2018-11-13T11:58:00.132Z,101291.00
2018-11-13T12:00:29.810Z,101299.00
2018-11-13T12:02:59.629Z,101308.00
2018-11-13T12:05:29.289Z,101302.00
2018-11-13T12:07:58.961Z,101301.00
2018-11-13T12:10:29.049Z,101311.00
2018-11-13T12:12:58.704Z,101300.00
2018-11-13T12:15:40.246Z,101313.00
2018-11-13T12:18:09.794Z,101319.00
2018-11-13T12:20:39.458Z,101312.00
2018-11-13T12:23:09.365Z,101311.00
2018-11-13T12:25:38.993Z,101310.00
2018-11-13T12:28:08.617Z,101305.00
2018-11-13T12:30:38.473Z,101317.00
2018-11-13T12:33:08.183Z,101324.00
2018-11-13T12:35:37.761Z,101322.00
2018-11-13T12:38:07.461Z,101331.00
2018-11-13T12:40:37.091Z,101339.00
2018-11-13T12:43:06.930Z,101326.00
2018-11-13T12:45:36.769Z,101347.00
2018-11-13T12:48:06.597Z,101334.00
2018-11-13T12:50:41.126Z,101345.00
2018-11-13T12:53:11.222Z,101342.00
2018-11-13T12:55:40.576Z,101345.00
2018-11-13T12:58:10.131Z,101349.00
2018-11-13T13:00:40.095Z,101358.00
2018-11-13T13:03:09.921Z,101362.00
2018-11-13T13:05:39.902Z,101368.00
2018-11-13T13:08:09.253Z,101385.00
2018-11-13T13:10:38.949Z,101375.00
2018-11-13T13:13:08.576Z,101372.00
2018-11-13T13:15:37.922Z,101379.00
2018-11-13T13:18:07.688Z,101380.00
2018-11-13T13:20:37.525Z,101388.00
2018-11-13T13:23:07.364Z,101388.00
2018-11-13T13:25:36.817Z,101397.00
2018-11-13T13:28:06.504Z,101397.00
2018-11-13T13:30:36.191Z,101403.00
2018-11-13T13:33:06.164Z,101398.00
2018-11-13T13:35:45.948Z,101402.00
2018-11-13T13:38:15.928Z,101417.00
2018-11-13T13:40:46.951Z,101417.00
2018-11-13T13:43:17.479Z,101424.00
2018-11-13T13:45:47.895Z,101423.00
2018-11-13T13:48:17.885Z,101416.00
2018-11-13T13:50:47.522Z,101424.00
2018-11-13T13:53:17.723Z,101418.00
2018-11-13T13:55:47.956Z,101427.00
2018-11-13T13:58:18.292Z,101434.00
2018-11-13T14:00:47.816Z,101433.00
2018-11-13T14:03:17.570Z,101430.00
2018-11-13T14:05:47.290Z,101434.00
2018-11-13T14:08:17.252Z,101443.00
2018-11-13T14:10:46.993Z,101441.00
2018-11-13T14:13:16.647Z,101437.00
2018-11-13T14:15:46.278Z,101433.00
2018-11-13T14:18:15.686Z,101453.00
2018-11-13T14:20:44.996Z,101454.00
2018-11-13T14:23:14.622Z,101465.00
2018-11-13T14:25:44.007Z,101461.00
2018-11-13T14:28:13.921Z,101468.00
2018-11-13T14:30:43.915Z,101468.00
2018-11-13T14:33:13.924Z,101477.00
2018-11-13T14:35:43.847Z,101484.00
2018-11-13T14:38:13.649Z,101477.00
2018-11-13T14:40:44.621Z,101483.00
2018-11-13T14:43:15.001Z,101488.00
2018-11-13T14:45:44.996Z,101490.00
2018-11-13T14:48:14.444Z,101493.00
2018-11-13T14:50:44.180Z,101495.00
2018-11-13T14:53:13.980Z,101499.00
2018-11-13T14:55:45.038Z,101501.00
2018-11-13T14:58:15.542Z,101501.00
2018-11-13T15:00:45.145Z,101506.00
2018-11-13T15:03:15.819Z,101513.00
2018-11-13T15:05:45.176Z,101514.00
2018-11-13T15:08:14.586Z,101521.00
2018-11-13T15:10:47.934Z,101526.00
2018-11-13T15:13:17.839Z,101528.00
2018-11-13T15:15:47.323Z,101542.00
2018-11-13T15:18:16.841Z,101546.00
2018-11-13T15:20:46.775Z,101551.00
2018-11-13T15:23:20.324Z,101553.00
2018-11-13T15:25:49.694Z,101554.00
2018-11-13T15:28:18.980Z,101555.00
2018-11-13T15:30:50.645Z,101554.00
2018-11-13T15:33:23.291Z,101550.00
2018-11-13T15:35:52.720Z,101563.00
2018-11-13T15:38:22.296Z,101564.00
2018-11-13T15:40:51.689Z,101572.00
2018-11-13T15:43:20.953Z,101578.00
2018-11-13T15:45:50.926Z,101574.00
2018-11-13T15:48:20.391Z,101571.00
2018-11-13T15:50:49.739Z,101582.00
2018-11-13T15:53:19.116Z,101587.00
2018-11-13T15:55:48.493Z,101582.00
2018-11-13T15:58:17.908Z,101590.00
2018-11-13T16:00:47.349Z,101595.00
2018-11-13T16:03:22.109Z,101604.00
2018-11-13T16:05:53.402Z,101598.00
2018-11-13T16:08:23.032Z,101599.00
2018-11-13T16:10:52.304Z,101613.00
2018-11-13T16:13:21.664Z,101613.00
2018-11-13T16:15:50.949Z,101623.00
2018-11-13T16:18:22.025Z,101622.00
2018-11-13T16:20:51.502Z,101630.00
2018-11-13T16:23:20.950Z,101635.00
2018-11-13T16:25:50.948Z,101631.00
2018-11-13T16:28:20.585Z,101641.00
2018-11-13T16:30:50.189Z,101645.00
2018-11-13T16:33:19.333Z,101646.00
2018-11-13T16:35:48.777Z,101642.00
2018-11-13T16:38:18.220Z,101649.00
2018-11-13T16:40:47.472Z,101644.00
2018-11-13T16:43:16.732Z,101653.00
2018-11-13T16:45:46.037Z,101655.00
2018-11-13T16:48:15.397Z,101654.00
2018-11-13T16:50:44.699Z,101665.00
2018-11-13T16:53:14.183Z,101660.00
2018-11-13T16:55:48.623Z,101663.00
2018-11-13T16:58:18.388Z,101670.00
2018-11-13T17:00:47.768Z,101668.00
2018-11-13T17:03:18.155Z,101663.00
2018-11-13T17:05:47.482Z,101680.00
2018-11-13T17:08:16.835Z,101674.00
2018-11-13T17:10:46.384Z,101673.00
2018-11-13T17:13:15.701Z,101681.00
2018-11-13T17:15:45.120Z,101681.00
2018-11-13T17:18:14.568Z,101677.00
2018-11-13T17:20:43.909Z,101685.00
2018-11-13T17:23:13.338Z,101678.00
2018-11-13T17:25:42.647Z,101682.00
2018-11-13T17:28:12.115Z,101686.00
2018-11-13T17:30:41.471Z,101682.00
2018-11-13T17:33:11.265Z,101693.00
2018-11-13T17:35:41.686Z,101702.00
2018-11-13T17:38:11.098Z,101690.00
2018-11-13T17:40:41.450Z,101700.00
2018-11-13T17:43:10.800Z,101705.00
2018-11-13T17:45:41.394Z,101705.00
2018-11-13T17:48:12.157Z,101708.00
2018-11-13T17:50:42.949Z,101716.00
2018-11-13T17:53:12.979Z,101720.00
2018-11-13T17:55:42.311Z,101721.00
2018-11-13T17:58:14.035Z,101717.00
2018-11-13T18:00:46.103Z,101728.00
2018-11-13T18:03:16.661Z,101732.00
2018-11-13T18:05:47.140Z,101725.00
2018-11-13T18:08:16.424Z,101724.00
2018-11-13T18:10:46.856Z,101727.00
2018-11-13T18:13:16.259Z,101725.00
2018-11-13T18:15:45.662Z,101727.00
2018-11-13T18:18:14.992Z,101728.00
2018-11-13T18:20:45.459Z,101730.00
2018-11-13T18:23:14.837Z,101731.00
2018-11-13T18:25:44.192Z,101725.00
2018-11-13T18:28:13.570Z,101735.00
2018-11-13T18:30:42.934Z,101740.00
2018-11-13T18:33:12.229Z,101740.00
2018-11-13T18:35:41.632Z,101742.00
2018-11-13T18:38:13.499Z,101732.00
2018-11-13T18:40:48.068Z,101743.00
2018-11-13T18:43:17.450Z,101737.00
2018-11-13T18:45:46.842Z,101749.00
2018-11-13T18:48:16.161Z,101751.00
2018-11-13T18:50:46.179Z,101754.00
2018-11-13T18:53:15.539Z,101761.00
2018-11-13T18:55:44.916Z,101765.00
2018-11-13T18:58:14.222Z,101770.00
2018-11-13T19:00:43.583Z,101773.00
2018-11-13T19:03:13.525Z,101778.00
2018-11-13T19:05:42.916Z,101770.00
2018-11-13T19:08:12.306Z,101777.00
2018-11-13T19:10:44.422Z,101781.00
2018-11-13T19:13:16.466Z,101782.00
2018-11-13T19:15:50.160Z,101786.00
2018-11-13T19:18:20.357Z,101789.00
2018-11-13T19:20:49.944Z,101791.00
2018-11-13T19:23:19.785Z,101801.00
2018-11-13T19:25:49.398Z,101805.00
2018-11-13T19:28:18.737Z,101800.00
2018-11-13T19:30:48.085Z,101801.00
2018-11-13T19:33:17.344Z,101811.00
2018-11-13T19:35:46.956Z,101809.00
2018-11-13T19:38:16.229Z,101812.00
2018-11-13T19:40:45.539Z,101805.00
2018-11-13T19:43:15.663Z,101770.00
2018-11-13T19:45:44.681Z,101820.00
2018-11-13T19:48:13.976Z,101821.00
2018-11-13T19:50:43.316Z,101825.00
2018-11-13T19:53:12.701Z,101827.00
2018-11-13T19:55:42.173Z,101833.00
2018-11-13T19:58:11.621Z,101828.00
2018-11-13T20:00:40.955Z,101829.00
2018-11-13T20:03:12.108Z,101834.00
2018-11-13T20:05:41.460Z,101840.00
2018-11-13T20:08:10.821Z,101848.00
2018-11-13T20:10:40.557Z,101853.00
2018-11-13T20:13:10.417Z,101851.00
2018-11-13T20:15:40.145Z,101861.00
2018-11-13T20:18:09.424Z,101850.00
2018-11-13T20:20:38.725Z,101861.00
2018-11-13T20:23:08.804Z,101874.00
2018-11-13T20:25:38.244Z,101865.00
2018-11-13T20:28:07.721Z,101870.00
2018-11-13T20:30:39.526Z,101870.00
2018-11-13T20:33:08.889Z,101871.00
2018-11-13T20:35:38.243Z,101865.00
2018-11-13T20:38:07.946Z,101876.00
2018-11-13T20:40:37.837Z,101872.00
2018-11-13T20:43:09.753Z,101873.00
2018-11-13T20:45:39.265Z,101871.00
2018-11-13T20:48:08.638Z,101883.00
2018-11-13T20:50:37.990Z,101881.00
2018-11-13T20:53:07.361Z,101886.00
2018-11-13T20:55:36.704Z,101882.00
2018-11-13T20:58:07.818Z,101885.00
2018-11-13T21:00:37.583Z,101892.00
2018-11-13T21:03:09.012Z,101887.00
2018-11-13T21:05:38.330Z,101900.00
2018-11-13T21:08:07.659Z,101897.00
2018-11-13T21:10:38.498Z,101891.00
2018-11-13T21:13:08.714Z,101895.00
2018-11-13T21:15:38.042Z,101892.00
2018-11-13T21:18:07.451Z,101893.00
2018-11-13T21:20:36.756Z,101901.00
2018-11-13T21:23:07.088Z,101903.00
2018-11-13T21:25:36.481Z,101901.00
2018-11-13T21:28:05.946Z,101907.00
2018-11-13T21:30:40.201Z,101911.00
2018-11-13T21:33:09.695Z,101906.00
2018-11-13T21:35:39.048Z,101899.00
2018-11-13T21:38:09.477Z,101915.00
2018-11-13T21:40:38.843Z,101911.00
2018-11-13T21:43:08.128Z,101920.00
2018-11-13T21:45:37.476Z,101918.00
2018-11-13T21:48:07.897Z,101918.00
2018-11-13T21:50:37.254Z,101919.00
2018-11-13T21:53:06.636Z,101910.00
2018-11-13T21:55:36.084Z,101933.00
2018-11-13T21:58:05.577Z,101926.00
2018-11-13T22:00:35.303Z,101932.00
2018-11-13T22:03:07.812Z,101935.00
2018-11-13T22:05:37.766Z,101929.00
2018-11-13T22:08:07.558Z,101932.00
2018-11-13T22:10:37.013Z,101940.00
2018-11-13T22:13:06.638Z,101941.00
2018-11-13T22:15:35.862Z,101944.00
2018-11-13T22:18:05.367Z,101942.00
2018-11-13T22:20:34.742Z,101948.00
2018-11-13T22:23:03.993Z,101952.00
2018-11-13T22:25:33.279Z,101949.00
2018-11-13T22:28:02.688Z,101953.00
2018-11-13T22:30:32.693Z,101954.00
2018-11-13T22:33:01.990Z,101958.00
2018-11-13T22:35:31.292Z,101960.00
2018-11-13T22:38:00.619Z,101964.00
2018-11-13T22:40:29.985Z,101962.00
2018-11-13T22:43:01.439Z,101963.00
2018-11-13T22:45:30.952Z,101963.00
2018-11-13T22:48:00.321Z,101958.00
2018-11-13T22:50:31.832Z,101954.00
2018-11-13T22:53:01.281Z,101965.00
2018-11-13T22:55:30.615Z,101965.00
2018-11-13T22:58:00.981Z,101967.00
2018-11-13T23:00:39.495Z,101958.00
2018-11-13T23:03:10.704Z,101965.00
2018-11-13T23:05:40.294Z,101965.00
2018-11-13T23:08:10.954Z,101955.00
2018-11-13T23:10:40.321Z,101959.00
2018-11-13T23:13:09.619Z,101958.00
2018-11-13T23:15:38.957Z,101971.00
2018-11-13T23:18:08.760Z,101972.00
2018-11-13T23:20:38.305Z,101981.00
2018-11-13T23:23:07.698Z,101981.00
2018-11-13T23:25:37.158Z,101985.00
2018-11-13T23:28:07.003Z,101979.00
2018-11-13T23:30:36.434Z,101977.00
2018-11-13T23:33:06.881Z,101980.00
2018-11-13T23:35:35.726Z,101979.00
2018-11-13T23:38:05.100Z,101980.00
2018-11-13T23:40:34.484Z,101980.00
2018-11-13T23:43:03.806Z,101987.00
2018-11-13T23:45:33.222Z,101976.00
2018-11-13T23:48:02.575Z,101992.00
2018-11-13T23:50:31.888Z,101993.00
2018-11-13T23:53:01.200Z,101997.00
2018-11-13T23:55:30.519Z,101990.00
2018-11-13T23:57:59.867Z,101989.00
